Time;durP1;ratioP1;P1;durP2;ratioP2;P2;SDS_P1;SDS_P2;PMS_P1;PMS_P2;Temp;Humidity;BMP_temperature;BMP_pressure;BME280_temperature;BME280_humidity;BME280_pressure;Samples;Min_cycle;Max_cycle;Signal;HPM_P1;HPM_P2
2022/03/01 08:11:09;;;;;;;22.10;13.63;;;4.20;95.00;;;;;;5087205;27;20742;-63
2022/03/01 08:13:36;;;;;;;24.77;14.30;;;4.20;94.20;;;;;;5081362;28;20854;-62
2022/03/01 08:16:04;;;;;;;23.63;14.63;;;4.20;94.00;;;;;;5089514;28;20039;-64
2022/03/01 08:18:30;;;;;;;25.95;16.52;;;4.30;93.90;;;;;;5082541;28;20040;-61
2022/03/01 08:20:57;;;;;;;23.83;14.23;;;4.30;94.10;;;;;;5080916;28;20078;-62
2022/03/01 08:23:23;;;;;;;23.67;15.65;;;4.40;94.20;;;;;;5083296;28;20627;-61
2022/03/01 08:25:49;;;;;;;21.88;13.55;;;4.50;94.30;;;;;;5120998;27;20142;-61
2022/03/01 08:28:15;;;;;;;23.02;15.25;;;4.50;94.30;;;;;;5094700;28;20130;-61
2022/03/01 08:30:41;;;;;;;23.08;13.63;;;4.60;94.40;;;;;;5090207;28;20051;-61
2022/03/01 08:33:07;;;;;;;19.45;12.68;;;4.70;94.40;;;;;;5094642;28;20055;-62
2022/03/01 08:35:34;;;;;;;25.08;14.90;;;4.70;94.40;;;;;;5087862;28;20067;-62
2022/03/01 08:38:02;;;;;;;22.40;13.75;;;4.80;94.40;;;;;;5096593;28;20039;-61
2022/03/01 08:40:33;;;;;;;23.83;13.85;;;4.90;94.40;;;;;;5092554;28;20040;-62
2022/03/01 08:42:59;;;;;;;24.92;14.93;;;4.90;94.40;;;;;;5099210;28;20421;-61
2022/03/01 08:45:26;;;;;;;18.55;12.88;;;5.00;94.40;;;;;;5114118;27;20525;-62
2022/03/01 08:47:51;;;;;;;22.83;14.68;;;5.00;94.20;;;;;;5130908;27;20101;-62
2022/03/01 08:50:17;;;;;;;24.90;14.43;;;5.10;94.20;;;;;;5094024;28;20040;-62
2022/03/01 08:52:43;;;;;;;23.02;14.23;;;4.80;94.10;;;;;;5094183;28;20546;-62
2022/03/01 08:55:09;;;;;;;19.50;13.77;;;5.20;94.30;;;;;;5088608;28;20131;-60
2022/03/01 08:57:36;;;;;;;25.10;14.73;;;5.20;94.00;;;;;;5109863;27;20067;-61
2022/03/01 09:00:08;;;;;;;22.63;15.40;;;5.20;93.90;;;;;;5093094;28;20071;-60
2022/03/01 09:02:34;;;;;;;20.80;14.15;;;5.30;93.90;;;;;;5089642;28;20154;-61
2022/03/01 09:04:59;;;;;;;21.75;14.30;;;5.30;93.80;;;;;;5089436;28;20047;-60
2022/03/01 09:07:25;;;;;;;21.90;14.02;;;5.30;93.80;;;;;;5114085;27;20048;-62
2022/03/01 09:09:52;;;;;;;22.67;14.02;;;5.40;94.00;;;;;;5090662;28;20081;-61
2022/03/01 09:12:18;;;;;;;22.77;14.75;;;5.40;93.60;;;;;;5082621;28;20286;-62
2022/03/01 09:14:44;;;;;;;22.15;14.55;;;5.30;93.40;;;;;;5077980;28;20415;-59
2022/03/01 09:17:10;;;;;;;23.50;14.68;;;5.40;93.40;;;;;;5123087;27;20036;-60
2022/03/01 09:19:36;;;;;;;27.38;16.08;;;5.40;93.40;;;;;;5096817;28;20036;-61
2022/03/01 09:22:02;;;;;;;22.00;14.95;;;5.50;93.50;;;;;;5097421;28;20067;-62
2022/03/01 09:24:28;;;;;;;21.70;15.23;;;5.60;93.50;;;;;;5079424;28;20140;-62
2022/03/01 09:26:57;;;;;;;20.90;14.20;;;5.60;93.40;;;;;;5065073;28;20047;-62
2022/03/01 09:29:23;;;;;;;24.55;16.15;;;5.70;93.20;;;;;;5109416;27;20036;-59
2022/03/01 09:31:50;;;;;;;19.77;13.57;;;5.70;93.20;;;;;;5079002;28;20190;-60
2022/03/01 09:34:15;;;;;;;25.95;14.70;;;5.80;93.00;;;;;;5092943;28;20477;-61
2022/03/01 09:36:41;;;;;;;23.65;14.63;;;5.80;92.90;;;;;;5111660;27;20058;-61
2022/03/01 09:39:07;;;;;;;21.15;15.13;;;5.80;92.80;;;;;;5112164;27;20196;-62
2022/03/01 09:41:33;;;;;;;20.80;14.75;;;5.90;92.90;;;;;;5080594;28;20036;-62
2022/03/01 09:44:01;;;;;;;22.13;15.27;;;5.90;92.60;;;;;;5082608;28;20036;-62
2022/03/01 09:46:27;;;;;;;21.63;16.08;;;6.00;92.60;;;;;;5081131;28;20478;-63
2022/03/01 09:48:53;;;;;;;22.00;14.32;;;6.10;92.50;;;;;;5050600;28;20047;-62
2022/03/01 09:51:21;;;;;;;21.20;13.93;;;6.10;92.40;;;;;;5066849;28;20521;-62
2022/03/01 09:53:48;;;;;;;25.63;15.15;;;6.20;92.30;;;;;;5067220;28;20075;-61
2022/03/01 09:56:17;;;;;;;20.65;14.57;;;6.30;92.20;;;;;;5083474;28;20095;-62
2022/03/01 09:58:47;;;;;;;21.02;14.57;;;6.40;92.30;;;;;;5073255;28;20449;-62
2022/03/01 10:01:16;;;;;;;24.15;15.38;;;6.50;92.20;;;;;;5070451;28;20039;-63
2022/03/01 10:03:48;;;;;;;24.98;14.77;;;6.50;91.90;;;;;;5053310;28;20494;-62
2022/03/01 10:06:14;;;;;;;23.52;15.65;;;6.50;91.90;;;;;;5069563;28;20036;-59
2022/03/01 10:08:40;;;;;;;20.63;13.88;;;6.60;91.70;;;;;;5088681;28;20032;-63
2022/03/01 10:11:07;;;;;;;25.83;16.38;;;6.60;91.30;;;;;;5067940;28;20093;-63
2022/03/01 10:13:35;;;;;;;22.80;15.35;;;6.60;91.30;;;;;;5063167;28;20421;-63
2022/03/01 10:16:21;;;;;;;20.83;13.95;;;6.60;91.10;;;;;;5056728;28;20419;-63
2022/03/01 10:18:54;;;;;;;23.67;15.20;;;6.60;91.10;;;;;;5053377;28;20421;-63
2022/03/01 10:21:22;;;;;;;27.98;17.20;;;6.60;91.10;;;;;;5068614;28;20553;-62
2022/03/01 10:23:51;;;;;;;25.63;15.70;;;6.60;91.20;;;;;;5072299;28;21903;-60
2022/03/01 10:26:19;;;;;;;25.77;14.95;;;6.60;91.10;;;;;;5068803;28;20537;-62
2022/03/01 10:28:46;;;;;;;25.65;16.58;;;6.60;91.30;;;;;;5086283;28;20509;-62
2022/03/01 10:31:18;;;;;;;22.75;15.55;;;6.70;91.20;;;;;;5074359;28;20047;-61
2022/03/01 10:33:53;;;;;;;24.52;15.52;;;6.70;91.30;;;;;;5090917;28;20036;-62
2022/03/01 10:36:28;;;;;;;23.35;15.07;;;6.70;91.30;;;;;;5071130;28;20406;-61
2022/03/01 10:38:59;;;;;;;24.70;16.95;;;6.80;91.30;;;;;;5076155;28;20045;-60
2022/03/01 10:41:30;;;;;;;26.23;16.77;;;6.80;91.30;;;;;;5078874;28;20395;-62
2022/03/01 10:43:57;;;;;;;24.15;16.08;;;6.80;91.40;;;;;;5100931;27;20036;-62
2022/03/01 10:46:24;;;;;;;24.42;15.35;;;6.80;91.50;;;;;;5070859;28;20126;-60
2022/03/01 10:49:12;;;;;;;23.10;16.20;;;6.80;91.50;;;;;;5111707;27;20586;-62
2022/03/01 10:52:05;;;;;;;24.52;16.60;;;6.80;91.70;;;;;;5076170;28;20175;-60
2022/03/01 10:54:36;;;;;;;23.20;16.48;;;6.80;91.80;;;;;;5082044;27;20036;-61
2022/03/01 10:57:07;;;;;;;26.55;16.77;;;6.80;92.10;;;;;;5094921;27;20094;-62
2022/03/01 10:59:36;;;;;;;24.98;16.02;;;6.80;91.80;;;;;;5067116;28;20101;-61
2022/03/01 11:02:04;;;;;;;21.17;15.43;;;6.80;91.70;;;;;;5063396;28;20166;-60
2022/03/01 11:04:29;;;;;;;25.23;16.67;;;6.80;91.70;;;;;;5071311;28;20040;-63
2022/03/01 11:07:00;;;;;;;26.30;16.98;;;6.80;91.70;;;;;;5065063;28;20120;-62
2022/03/01 11:09:28;;;;;;;21.30;14.13;;;6.80;91.70;;;;;;5074095;28;20048;-63
2022/03/01 11:11:55;;;;;;;24.17;16.88;;;6.80;91.70;;;;;;5074266;28;20047;-60
2022/03/01 11:14:53;;;;;;;28.00;17.88;;;6.80;91.70;;;;;;5070895;28;20040;-62
2022/03/01 11:17:48;;;;;;;24.73;16.45;;;6.80;91.80;;;;;;5071396;28;20036;-62
2022/03/01 11:20:22;;;;;;;24.42;17.45;;;6.80;91.90;;;;;;5064097;28;20420;-63
2022/03/01 11:22:56;;;;;;;27.70;18.05;;;6.70;92.00;;;;;;5104458;27;20120;-60
2022/03/01 11:25:25;;;;;;;28.48;18.60;;;6.80;92.30;;;;;;5073195;28;20059;-63
2022/03/01 11:28:03;;;;;;;26.30;18.40;;;6.80;92.60;;;;;;5068155;28;20048;-63
2022/03/01 11:30:32;;;;;;;25.55;17.58;;;6.80;92.80;;;;;;5054696;28;20347;-62
2022/03/01 11:32:59;;;;;;;24.65;17.65;;;6.80;93.00;;;;;;5069456;28;20047;-63
2022/03/01 11:35:28;;;;;;;26.85;17.77;;;6.80;93.10;;;;;;5097313;28;20046;-62
2022/03/01 11:38:05;;;;;;;30.52;19.52;;;6.80;93.20;;;;;;5068994;28;20043;-63
2022/03/01 11:40:43;;;;;;;34.42;21.88;;;6.80;93.50;;;;;;5108185;27;20308;-60
2022/03/01 11:43:22;;;;;;;31.92;19.83;;;6.80;93.70;;;;;;5071824;28;20493;-61
2022/03/01 11:45:58;;;;;;;29.33;19.80;;;6.90;93.90;;;;;;5075410;28;20442;-61
2022/03/01 11:48:26;;;;;;;32.05;20.55;;;6.90;93.90;;;;;;5073968;28;20040;-62
2022/03/01 11:50:57;;;;;;;30.10;19.77;;;6.90;94.00;;;;;;5073625;28;20148;-62
2022/03/01 11:53:29;;;;;;;32.88;20.73;;;7.00;94.10;;;;;;5074658;28;20048;-63
2022/03/01 11:55:59;;;;;;;29.73;19.25;;;7.00;94.30;;;;;;5075663;28;20043;-63
2022/03/01 11:58:26;;;;;;;32.80;19.55;;;7.10;94.40;;;;;;5054690;28;20049;-62
2022/03/01 12:00:53;;;;;;;31.45;20.10;;;7.10;94.60;;;;;;5080008;28;21229;-60
2022/03/01 12:03:22;;;;;;;28.48;19.55;;;7.10;94.20;;;;;;5068226;28;20696;-60
2022/03/01 12:05:49;;;;;;;29.85;20.38;;;7.00;94.40;;;;;;5066498;28;20553;-61
2022/03/01 12:08:17;;;;;;;32.55;21.67;;;7.10;94.70;;;;;;5100684;27;20059;-61
2022/03/01 12:10:57;;;;;;;28.15;18.52;;;7.10;94.70;;;;;;5082952;28;20377;-63
2022/03/01 12:13:37;;;;;;;29.45;19.55;;;7.10;94.70;;;;;;5071629;28;20044;-61
2022/03/01 12:16:04;;;;;;;31.88;20.58;;;7.20;94.90;;;;;;5064108;28;20115;-61
2022/03/01 12:18:34;;;;;;;27.05;18.58;;;7.20;95.10;;;;;;5069618;28;20032;-62
2022/03/01 12:21:09;;;;;;;36.85;22.02;;;7.30;95.20;;;;;;5069095;28;20175;-61
2022/03/01 12:23:37;;;;;;;31.58;19.95;;;7.30;95.10;;;;;;5085711;28;20043;-63
2022/03/01 12:26:05;;;;;;;34.75;21.55;;;7.40;95.30;;;;;;5043681;28;20044;-62
2022/03/01 12:28:37;;;;;;;31.42;20.73;;;7.50;95.20;;;;;;5102799;27;20048;-60
2022/03/01 12:31:12;;;;;;;32.08;20.80;;;7.50;94.70;;;;;;5048931;28;20498;-60
2022/03/01 12:33:50;;;;;;;29.92;20.77;;;7.50;94.90;;;;;;5090713;28;20028;-62
2022/03/01 12:36:45;;;;;;;33.75;22.15;;;7.50;94.80;;;;;;5058711;28;20231;-63
2022/03/01 12:39:13;;;;;;;28.50;19.70;;;7.50;95.00;;;;;;5056721;28;20760;-63
2022/03/01 12:41:41;;;;;;;36.88;23.08;;;7.50;95.10;;;;;;5073946;28;20398;-63
2022/03/01 12:44:10;;;;;;;32.38;20.08;;;7.40;95.20;;;;;;5059986;28;20043;-62
2022/03/01 12:46:37;;;;;;;31.55;21.50;;;7.40;95.40;;;;;;5078809;28;20051;-63
2022/03/01 12:49:10;;;;;;;34.67;21.80;;;7.40;95.50;;;;;;5062620;28;21561;-61
2022/03/01 12:51:36;;;;;;;34.42;22.10;;;7.40;95.50;;;;;;5077804;28;20511;-62
2022/03/01 12:54:03;;;;;;;32.30;21.58;;;7.50;95.70;;;;;;5104416;28;20059;-63
2022/03/01 12:56:32;;;;;;;27.73;19.23;;;7.50;95.80;;;;;;5088227;28;20463;-61
2022/03/01 12:59:09;;;;;;;29.20;19.85;;;7.40;95.80;;;;;;5072619;28;20788;-62
2022/03/01 13:01:36;;;;;;;34.90;22.20;;;7.40;95.80;;;;;;5088459;27;20028;-62
2022/03/01 13:04:03;;;;;;;33.20;22.90;;;7.40;96.00;;;;;;5075425;28;20032;-61
2022/03/01 13:06:31;;;;;;;31.98;21.05;;;7.40;95.90;;;;;;5057500;28;20115;-62
2022/03/01 13:08:57;;;;;;;33.78;22.15;;;7.30;95.30;;;;;;5068434;28;20511;-62
2022/03/01 13:11:24;;;;;;;32.88;22.70;;;7.30;95.20;;;;;;5082650;28;20516;-63
2022/03/01 13:13:58;;;;;;;31.60;21.60;;;7.30;95.50;;;;;;5073817;28;20047;-63
2022/03/01 13:16:29;;;;;;;36.50;23.33;;;7.30;95.70;;;;;;5073945;28;20518;-61
2022/03/01 13:18:59;;;;;;;33.65;22.95;;;7.30;95.70;;;;;;5091557;28;20165;-63
2022/03/01 13:21:29;;;;;;;31.85;21.20;;;7.40;95.90;;;;;;5068223;28;20497;-61
2022/03/01 13:23:57;;;;;;;34.63;23.70;;;7.30;95.80;;;;;;5105563;27;20119;-63
2022/03/01 13:26:24;;;;;;;33.22;21.95;;;7.30;95.70;;;;;;5083658;28;20047;-63
2022/03/01 13:28:50;;;;;;;35.05;23.05;;;7.30;95.80;;;;;;5073545;28;20028;-63
2022/03/01 13:31:23;;;;;;;32.47;20.58;;;7.30;96.00;;;;;;5071727;28;20524;-62
2022/03/01 13:33:56;;;;;;;34.15;20.80;;;7.30;96.00;;;;;;5102267;27;20071;-63
2022/03/01 13:36:26;;;;;;;36.17;22.52;;;7.40;96.10;;;;;;5071232;28;20039;-62
2022/03/01 13:39:01;;;;;;;33.42;22.63;;;7.40;96.00;;;;;;5068340;28;20132;-61
2022/03/01 13:41:30;;;;;;;33.10;22.25;;;7.50;95.90;;;;;;5073662;28;20076;-63
2022/03/01 13:43:56;;;;;;;31.90;22.05;;;7.50;95.90;;;;;;5053647;28;20036;-61
2022/03/01 13:46:22;;;;;;;34.95;23.30;;;7.50;95.90;;;;;;5082310;27;20114;-62
2022/03/01 13:48:47;;;;;;;34.72;22.20;;;7.70;95.80;;;;;;5060364;28;20505;-62
2022/03/01 13:51:13;;;;;;;29.25;19.02;;;7.60;95.70;;;;;;5066559;28;20044;-63
2022/03/01 13:53:39;;;;;;;36.00;22.55;;;7.50;95.50;;;;;;5091707;28;20047;-60
2022/03/01 13:56:05;;;;;;;34.00;23.23;;;7.50;95.30;;;;;;5100711;27;20079;-62
2022/03/01 13:58:31;;;;;;;32.55;21.92;;;7.50;95.50;;;;;;5067026;28;20040;-62
2022/03/01 14:01:02;;;;;;;32.78;21.70;;;7.50;95.70;;;;;;5066051;28;20048;-62
2022/03/01 14:03:34;;;;;;;29.75;21.45;;;7.50;95.70;;;;;;5061063;28;20416;-62
2022/03/01 14:06:11;;;;;;;35.47;23.17;;;7.60;95.90;;;;;;5080556;28;20463;-63
2022/03/01 14:08:42;;;;;;;35.63;23.88;;;7.50;95.80;;;;;;5072062;28;20040;-63
2022/03/01 14:11:14;;;;;;;31.60;20.00;;;7.60;95.80;;;;;;5067999;28;20028;-61
2022/03/01 14:13:42;;;;;;;34.53;21.70;;;7.50;95.80;;;;;;5066995;28;20125;-61
2022/03/01 14:16:09;;;;;;;33.55;22.20;;;7.50;96.00;;;;;;5071467;28;20498;-63
2022/03/01 14:18:40;;;;;;;35.38;22.40;;;7.50;96.00;;;;;;5096164;27;20094;-63
2022/03/01 14:21:10;;;;;;;33.65;22.15;;;7.50;96.00;;;;;;5097973;27;20040;-61
2022/03/01 14:23:37;;;;;;;32.63;23.75;;;7.70;96.10;;;;;;5064535;28;20067;-62
2022/03/01 14:26:04;;;;;;;29.88;20.95;;;7.50;96.10;;;;;;5067485;28;20086;-61
2022/03/01 14:28:29;;;;;;;33.00;22.02;;;7.50;96.10;;;;;;5064418;28;20047;-60
2022/03/01 14:30:58;;;;;;;35.28;23.15;;;7.50;96.10;;;;;;5097602;27;20610;-62
2022/03/01 14:33:25;;;;;;;35.60;23.38;;;7.50;96.10;;;;;;5085890;28;20114;-63
2022/03/01 14:35:51;;;;;;;31.55;20.88;;;7.50;96.20;;;;;;5062879;28;20047;-61
2022/03/01 14:38:16;;;;;;;33.78;22.30;;;7.50;96.40;;;;;;5054529;28;20433;-63
2022/03/01 14:40:43;;;;;;;35.45;23.15;;;7.50;96.50;;;;;;5101140;27;20224;-62
2022/03/01 14:43:08;;;;;;;32.75;22.42;;;7.50;96.50;;;;;;5081093;27;20093;-61
2022/03/01 14:45:34;;;;;;;33.30;22.80;;;7.50;96.70;;;;;;5068355;28;20040;-63
2022/03/01 14:48:00;;;;;;;31.92;22.15;;;7.50;96.70;;;;;;5107958;27;20047;-62
2022/03/01 14:50:26;;;;;;;46.13;29.20;;;7.50;96.80;;;;;;5063378;28;20045;-61
2022/03/01 14:52:52;;;;;;;33.92;22.00;;;7.50;97.00;;;;;;5074021;28;20082;-62
2022/03/01 14:55:19;;;;;;;31.13;22.88;;;7.50;97.00;;;;;;5069839;28;20036;-61
2022/03/01 14:57:45;;;;;;;36.97;23.27;;;7.50;97.20;;;;;;5055227;28;20122;-61
2022/03/01 15:00:12;;;;;;;35.88;23.83;;;7.60;97.40;;;;;;5074155;28;20101;-61
2022/03/01 15:02:42;;;;;;;31.35;22.30;;;7.60;97.50;;;;;;5075323;28;20544;-60
2022/03/01 15:07:04;;;;;;;35.85;21.95;;;7.60;97.20;;;;;;5134454;27;20099;-61
2022/03/01 15:09:30;;;;;;;32.60;21.85;;;7.70;97.40;;;;;;5083844;28;20048;-61
2022/03/01 15:11:55;;;;;;;35.45;24.38;;;7.60;97.20;;;;;;5091992;28;20229;-61
2022/03/01 15:14:21;;;;;;;36.63;24.73;;;7.50;97.10;;;;;;5105873;27;20046;-60
2022/03/01 15:16:47;;;;;;;35.58;24.10;;;7.50;97.20;;;;;;5073605;28;20051;-60
2022/03/01 15:19:13;;;;;;;35.88;24.45;;;7.50;97.40;;;;;;5091703;28;20028;-61
2022/03/01 15:21:39;;;;;;;32.97;22.00;;;7.50;97.40;;;;;;5087123;28;20048;-60
2022/03/01 15:24:08;;;;;;;31.35;21.88;;;7.50;97.40;;;;;;5091909;28;20055;-63
2022/03/01 15:26:36;;;;;;;30.20;21.92;;;7.50;97.60;;;;;;5092211;28;20056;-60
2022/03/01 15:29:02;;;;;;;32.40;22.55;;;7.40;97.50;;;;;;5073124;28;20069;-64
2022/03/01 15:31:28;;;;;;;31.83;22.52;;;7.40;97.60;;;;;;5087200;28;20035;-62
2022/03/01 15:33:54;;;;;;;35.40;24.20;;;7.40;97.70;;;;;;5092579;28;20031;-62
2022/03/01 15:36:19;;;;;;;42.33;23.15;;;7.50;97.80;;;;;;5091143;28;20056;-62
2022/03/01 15:38:45;;;;;;;30.80;21.35;;;7.50;97.90;;;;;;5073489;28;20044;-62
2022/03/01 15:41:11;;;;;;;32.55;21.08;;;7.50;97.90;;;;;;5095222;28;20546;-61
2022/03/01 15:43:37;;;;;;;33.83;22.23;;;7.50;97.90;;;;;;5053521;28;20051;-61
2022/03/01 15:46:03;;;;;;;32.58;23.38;;;7.40;98.00;;;;;;5069221;28;20039;-62
2022/03/01 15:48:28;;;;;;;31.05;22.90;;;7.40;98.10;;;;;;5079394;28;20066;-63
2022/03/01 15:50:55;;;;;;;30.98;21.05;;;7.40;98.20;;;;;;5079339;28;20166;-62
2022/03/01 15:53:20;;;;;;;29.60;21.55;;;7.40;98.30;;;;;;5080514;28;20505;-62
2022/03/01 15:55:47;;;;;;;36.70;25.13;;;7.40;98.40;;;;;;5075802;28;20033;-62
2022/03/01 15:58:14;;;;;;;33.08;23.25;;;7.50;98.50;;;;;;5061473;22;20468;-56
2022/03/01 16:00:41;;;;;;;28.13;20.23;;;7.40;98.70;;;;;;5012474;28;20103;-56
2022/03/01 16:03:09;;;;;;;28.45;20.40;;;7.40;98.70;;;;;;5020006;28;20983;-56
2022/03/01 16:05:36;;;;;;;32.42;22.13;;;7.40;98.80;;;;;;5020762;28;20728;-56
2022/03/01 16:08:01;;;;;;;29.63;20.83;;;7.40;98.90;;;;;;5019099;28;20083;-55
2022/03/01 16:10:27;;;;;;;32.22;22.58;;;7.40;98.90;;;;;;5017379;28;20040;-53
2022/03/01 16:12:53;;;;;;;31.17;22.45;;;7.40;99.00;;;;;;5019743;28;20053;-55
2022/03/01 16:15:19;;;;;;;31.40;21.40;;;7.40;99.10;;;;;;5019824;28;20041;-52
2022/03/01 16:17:45;;;;;;;28.63;20.05;;;7.40;99.20;;;;;;5010380;28;20041;-56
2022/03/01 16:20:11;;;;;;;30.30;21.60;;;7.40;99.30;;;;;;5005696;28;20046;-55
2022/03/01 16:22:37;;;;;;;31.08;21.98;;;7.40;99.40;;;;;;5000041;28;20069;-52
2022/03/01 16:25:05;;;;;;;30.63;21.83;;;7.30;99.40;;;;;;5031641;28;20603;-54
2022/03/01 16:27:30;;;;;;;30.80;21.48;;;7.40;99.50;;;;;;5013808;28;20041;-52
2022/03/01 16:29:57;;;;;;;29.50;20.83;;;7.40;99.70;;;;;;5005675;28;20042;-53
2022/03/01 16:32:23;;;;;;;28.00;20.58;;;7.40;99.70;;;;;;5016070;28;20386;-54
2022/03/01 16:34:49;;;;;;;28.98;20.80;;;7.40;99.80;;;;;;5002382;28;20099;-54
2022/03/01 16:37:15;;;;;;;29.15;20.80;;;7.30;99.80;;;;;;5028455;28;20047;-52
2022/03/01 16:39:44;;;;;;;25.20;18.63;;;7.30;99.90;;;;;;5003623;28;20073;-54
2022/03/01 16:42:11;;;;;;;33.17;21.80;;;7.30;99.90;;;;;;5006785;28;20034;-56
2022/03/01 16:44:37;;;;;;;27.88;21.00;;;7.20;99.90;;;;;;5004310;28;20056;-56
2022/03/01 16:47:03;;;;;;;31.67;22.02;;;7.30;99.90;;;;;;5001994;28;20053;-51
2022/03/01 16:49:35;;;;;;;27.67;20.95;;;7.20;99.90;;;;;;5005027;28;20045;-52
2022/03/01 16:52:04;;;;;;;30.75;21.30;;;7.20;99.90;;;;;;5004302;28;20045;-52
2022/03/01 16:54:32;;;;;;;32.35;21.80;;;7.10;99.90;;;;;;5007905;28;20048;-51
2022/03/01 16:57:01;;;;;;;30.40;21.20;;;7.10;99.90;;;;;;5011279;28;20853;-54
2022/03/01 16:59:27;;;;;;;31.83;20.55;;;7.10;99.90;;;;;;5014233;28;20065;-54
2022/03/01 17:01:53;;;;;;;28.42;21.38;;;7.10;99.90;;;;;;5017095;28;20113;-54
2022/03/01 17:04:18;;;;;;;29.60;20.73;;;7.10;99.90;;;;;;5002970;28;20049;-52
2022/03/01 17:06:44;;;;;;;32.25;22.25;;;7.20;99.90;;;;;;5010424;28;20132;-53
2022/03/01 17:09:11;;;;;;;31.42;21.77;;;7.10;99.90;;;;;;5016400;28;20115;-53
2022/03/01 17:11:39;;;;;;;28.27;21.38;;;7.10;99.90;;;;;;5012994;28;20768;-53
2022/03/01 17:14:04;;;;;;;29.90;21.40;;;7.10;99.90;;;;;;5033753;28;20045;-54
2022/03/01 17:16:30;;;;;;;31.70;23.33;;;7.00;99.90;;;;;;5013300;28;20136;-55
2022/03/01 17:18:57;;;;;;;31.83;22.98;;;7.00;99.90;;;;;;5017541;28;20057;-54
2022/03/01 17:21:23;;;;;;;34.75;23.33;;;7.00;99.90;;;;;;5034568;28;20049;-54
2022/03/01 17:23:49;;;;;;;29.30;21.33;;;7.00;99.90;;;;;;5014760;28;20037;-55
2022/03/01 17:26:15;;;;;;;33.63;21.42;;;6.90;99.90;;;;;;5018824;28;20448;-55
2022/03/01 17:28:42;;;;;;;30.85;21.92;;;6.90;99.90;;;;;;5018240;28;20046;-56
2022/03/01 17:31:07;;;;;;;29.80;21.48;;;7.00;99.90;;;;;;5029541;28;20041;-55
2022/03/01 17:33:34;;;;;;;33.40;24.15;;;6.90;99.90;;;;;;5017662;28;20176;-55
2022/03/01 17:35:59;;;;;;;30.58;22.33;;;7.00;99.90;;;;;;5017841;28;20521;-52
2022/03/01 17:38:25;;;;;;;28.80;21.20;;;7.00;99.90;;;;;;5014681;28;20041;-54
2022/03/01 17:40:51;;;;;;;31.42;22.23;;;6.90;99.90;;;;;;5018267;28;20111;-56
2022/03/01 17:43:17;;;;;;;28.25;20.83;;;6.90;99.90;;;;;;5025782;28;21443;-57
2022/03/01 17:45:43;;;;;;;34.13;24.25;;;6.90;99.90;;;;;;5013139;28;20082;-55
2022/03/01 17:48:09;;;;;;;35.10;24.77;;;6.90;99.90;;;;;;5001319;28;20496;-56
2022/03/01 17:50:35;;;;;;;32.83;24.13;;;6.80;99.90;;;;;;4996281;28;20252;-55
2022/03/01 17:53:01;;;;;;;30.65;22.90;;;6.80;99.90;;;;;;5022890;28;20452;-56
2022/03/01 17:55:27;;;;;;;30.63;22.67;;;6.90;99.90;;;;;;5015374;28;20096;-55
2022/03/01 17:57:53;;;;;;;36.97;24.85;;;6.80;99.90;;;;;;5030665;28;20072;-55
2022/03/01 18:00:19;;;;;;;29.85;22.20;;;6.80;99.90;;;;;;5018920;28;20045;-56
2022/03/01 18:02:46;;;;;;;30.25;21.33;;;6.80;99.90;;;;;;4999888;28;20125;-56
2022/03/01 18:05:12;;;;;;;31.63;22.73;;;6.80;99.90;;;;;;5013650;28;20051;-56
2022/03/01 18:07:38;;;;;;;33.90;25.35;;;6.80;99.90;;;;;;4998502;28;20101;-55
2022/03/01 18:10:06;;;;;;;34.88;24.52;;;6.80;99.90;;;;;;5013796;28;20075;-53
2022/03/01 18:12:32;;;;;;;29.48;21.75;;;6.80;99.90;;;;;;5010059;28;20676;-53
2022/03/01 18:14:58;;;;;;;40.30;27.35;;;6.70;99.90;;;;;;5036646;28;20033;-54
2022/03/01 18:17:24;;;;;;;36.10;25.48;;;6.70;99.90;;;;;;5023374;28;20041;-57
2022/03/01 18:19:51;;;;;;;35.30;24.27;;;6.70;99.90;;;;;;5012936;28;20069;-56
2022/03/01 18:22:17;;;;;;;36.55;25.17;;;6.60;99.90;;;;;;5025161;28;20060;-58
2022/03/01 18:24:43;;;;;;;34.67;24.20;;;6.60;99.90;;;;;;5003517;28;20056;-55
2022/03/01 18:27:08;;;;;;;34.55;24.83;;;6.50;99.90;;;;;;5005788;28;20499;-55
2022/03/01 18:29:34;;;;;;;37.08;25.13;;;6.50;99.90;;;;;;5022950;28;20618;-55
2022/03/01 18:32:00;;;;;;;39.20;27.15;;;6.50;99.90;;;;;;5023612;28;20068;-56
2022/03/01 18:34:27;;;;;;;37.20;26.85;;;6.50;99.90;;;;;;4990284;28;20052;-57
2022/03/01 18:36:54;;;;;;;34.20;25.08;;;6.50;99.90;;;;;;5004362;28;20049;-56
2022/03/01 18:39:21;;;;;;;40.05;25.67;;;6.50;99.90;;;;;;5006165;28;20268;-56
2022/03/01 18:41:47;;;;;;;31.88;23.45;;;6.50;99.90;;;;;;5002575;28;20227;-56
2022/03/01 18:44:13;;;;;;;36.40;24.17;;;6.50;99.90;;;;;;5025841;28;20515;-56
2022/03/01 18:46:41;;;;;;;37.92;25.20;;;6.40;99.90;;;;;;5009187;28;20038;-56
2022/03/01 18:49:07;;;;;;;38.25;26.13;;;6.40;99.90;;;;;;5008863;28;20057;-56
2022/03/01 18:51:34;;;;;;;38.65;26.10;;;6.50;99.90;;;;;;5012302;28;20041;-57
2022/03/01 18:54:00;;;;;;;34.10;24.35;;;6.40;99.90;;;;;;5005552;28;20046;-55
2022/03/01 18:56:27;;;;;;;43.65;27.15;;;6.40;99.90;;;;;;5022479;28;20256;-56
2022/03/01 18:58:54;;;;;;;35.45;25.80;;;6.40;99.90;;;;;;5016617;28;20419;-57
2022/03/01 19:01:21;;;;;;;36.35;26.25;;;6.30;99.90;;;;;;5007198;28;20096;-57
2022/03/01 19:03:48;;;;;;;38.90;26.63;;;6.30;99.90;;;;;;5010649;28;20317;-56
2022/03/01 19:06:16;;;;;;;36.58;24.85;;;6.30;99.90;;;;;;4998468;28;20334;-56
2022/03/01 19:08:50;;;;;;;32.70;23.58;;;6.30;99.90;;;;;;5004941;28;20033;-56
2022/03/01 19:11:17;;;;;;;36.05;25.25;;;6.20;99.90;;;;;;5013767;28;20045;-55
2022/03/01 19:13:43;;;;;;;34.60;24.02;;;6.20;99.90;;;;;;5003482;28;20045;-55
2022/03/01 19:16:09;;;;;;;36.72;25.40;;;6.20;99.90;;;;;;5025492;28;20195;-56
2022/03/01 19:18:35;;;;;;;38.20;25.05;;;6.20;99.90;;;;;;5028866;28;20177;-55
2022/03/01 19:21:01;;;;;;;38.03;27.13;;;6.20;99.90;;;;;;4993214;28;20401;-56
2022/03/01 19:23:27;;;;;;;39.78;25.77;;;6.20;99.90;;;;;;5022601;28;20065;-56
2022/03/01 19:25:53;;;;;;;42.75;27.58;;;6.20;99.90;;;;;;5008087;28;20977;-56
2022/03/01 19:28:19;;;;;;;39.78;27.40;;;6.10;99.90;;;;;;5001205;28;20038;-56
2022/03/01 19:30:45;;;;;;;40.28;27.55;;;6.10;99.90;;;;;;4994442;28;20041;-54
2022/03/01 19:33:13;;;;;;;37.58;26.38;;;6.10;99.90;;;;;;5000109;28;20040;-55
2022/03/01 19:35:40;;;;;;;35.72;25.95;;;6.00;99.90;;;;;;5011473;28;20072;-56
2022/03/01 19:38:07;;;;;;;43.78;29.65;;;6.00;99.90;;;;;;5006663;28;20221;-56
2022/03/01 19:40:34;;;;;;;40.38;27.75;;;6.00;99.90;;;;;;4983575;28;20033;-55
2022/03/01 19:43:00;;;;;;;43.83;28.27;;;6.00;99.90;;;;;;5006697;28;20046;-55
2022/03/01 19:45:26;;;;;;;38.45;25.85;;;6.00;99.90;;;;;;5019835;28;20041;-55
2022/03/01 19:47:52;;;;;;;38.65;26.75;;;5.90;99.90;;;;;;5002315;28;20038;-55
2022/03/01 19:50:21;;;;;;;39.88;26.70;;;6.00;99.90;;;;;;5010388;28;20060;-57
2022/03/01 19:52:48;;;;;;;35.50;24.92;;;5.90;99.90;;;;;;5008457;28;20056;-56
2022/03/01 19:55:16;;;;;;;38.85;26.80;;;5.90;99.90;;;;;;5019073;28;20235;-54
2022/03/01 19:57:42;;;;;;;37.90;25.77;;;5.90;99.90;;;;;;5009423;28;20322;-54
2022/03/01 20:00:14;;;;;;;39.72;26.95;;;5.90;99.90;;;;;;5010411;28;20443;-55
2022/03/01 20:02:40;;;;;;;41.03;26.02;;;5.90;99.90;;;;;;5010634;28;20388;-55
2022/03/01 20:05:08;;;;;;;39.65;25.77;;;5.90;99.90;;;;;;5008660;28;20391;-57
2022/03/01 20:07:34;;;;;;;57.40;29.10;;;5.90;99.90;;;;;;5020304;28;20044;-56
2022/03/01 20:10:00;;;;;;;35.10;24.88;;;5.80;99.90;;;;;;5013365;28;20067;-56
2022/03/01 20:12:26;;;;;;;37.60;26.65;;;5.80;99.90;;;;;;4992182;28;20447;-54
2022/03/01 20:14:52;;;;;;;31.05;21.92;;;5.80;99.90;;;;;;4999161;28;20076;-52
2022/03/01 20:17:18;;;;;;;37.17;25.95;;;5.80;99.90;;;;;;5023636;28;20164;-54
2022/03/01 20:19:44;;;;;;;39.35;26.42;;;5.80;99.90;;;;;;5011098;28;20060;-53
2022/03/01 20:22:10;;;;;;;48.30;31.40;;;5.80;99.90;;;;;;5010543;28;20377;-53
2022/03/01 20:24:40;;;;;;;56.33;33.97;;;5.80;99.90;;;;;;5012751;28;20515;-53
2022/03/01 20:27:08;;;;;;;61.05;38.03;;;5.80;99.90;;;;;;5019694;28;20045;-54
2022/03/01 20:29:35;;;;;;;42.17;30.75;;;5.80;99.90;;;;;;5013106;28;20087;-53
2022/03/01 20:32:03;;;;;;;41.85;27.85;;;5.80;99.90;;;;;;5028326;28;20495;-56
2022/03/01 20:34:30;;;;;;;40.55;28.20;;;5.80;99.90;;;;;;5011994;28;20405;-53
2022/03/01 20:36:57;;;;;;;40.53;27.95;;;5.80;99.90;;;;;;5016377;28;20059;-56
2022/03/01 20:39:24;;;;;;;44.45;28.50;;;5.80;99.90;;;;;;5018097;28;20073;-57
2022/03/01 20:41:50;;;;;;;38.63;26.85;;;5.80;99.90;;;;;;5010503;28;20049;-56
2022/03/01 20:44:16;;;;;;;41.95;28.20;;;5.80;99.90;;;;;;5017191;28;20034;-56
2022/03/01 20:46:43;;;;;;;39.45;27.40;;;5.80;99.90;;;;;;5014173;28;20033;-56
2022/03/01 20:49:09;;;;;;;38.10;28.27;;;5.70;99.90;;;;;;5011277;28;20086;-54
2022/03/01 20:51:36;;;;;;;45.15;28.90;;;5.70;99.90;;;;;;4995726;28;20033;-55